sensor_id;sensor_type;location;lat;lon;timestamp;P1;P2;P0
74428;PMS5003;62860;52.134;23.714;2022-11-15T00:04:31;8.8;7.8;6
74428;PMS5003;62860;52.134;23.714;2022-11-15T00:09:29;9.8;7.8;5
74428;PMS5003;62860;52.134;23.714;2022-11-15T00:14:17;8.2;7.4;5.6
74428;PMS5003;62860;52.134;23.714;2022-11-15T00:19:45;13.2;8;5.6
74428;PMS5003;62860;52.134;23.714;2022-11-15T00:24:07;8.6;7.8;5.2
74428;PMS5003;62860;52.134;23.714;2022-11-15T00:29:45;9.4;8;5
74428;PMS5003;62860;52.134;23.714;2022-11-15T00:34:15;12.2;8.4;6
74428;PMS5003;62860;52.134;23.714;2022-11-15T00:39:45;7.2;6;4
74428;PMS5003;62860;52.134;23.714;2022-11-15T00:44:17;9.2;8.2;5.8
74428;PMS5003;62860;52.134;23.714;2022-11-15T00:49:03;10.6;7.8;6.2
74428;PMS5003;62860;52.134;23.714;2022-11-15T00:54:19;13;10.8;5.8
74428;PMS5003;62860;52.134;23.714;2022-11-15T00:59:19;8.4;6.8;4.4
74428;PMS5003;62860;52.134;23.714;2022-11-15T01:04:45;9.8;6.8;4.8
74428;PMS5003;62860;52.134;23.714;2022-11-15T01:09:43;8.2;5.8;4
74428;PMS5003;62860;52.134;23.714;2022-11-15T01:14:01;7.4;6.6;4.8
74428;PMS5003;62860;52.134;23.714;2022-11-15T01:19:33;7.8;7.4;5.2
74428;PMS5003;62860;52.134;23.714;2022-11-15T01:24:31;8.4;7.2;4.4
74428;PMS5003;62860;52.134;23.714;2022-11-15T01:29:21;10;6.8;5.2
74428;PMS5003;62860;52.134;23.714;2022-11-15T01:34:49;8.8;6.8;5.6
74428;PMS5003;62860;52.134;23.714;2022-11-15T01:39:11;10.6;7.8;5.8
74428;PMS5003;62860;52.134;23.714;2022-11-15T01:44:47;10.2;7.8;5.6
74428;PMS5003;62860;52.134;23.714;2022-11-15T01:49:11;7.8;7.6;6
74428;PMS5003;62860;52.134;23.714;2022-11-15T01:54:47;7.6;6;4.6
74428;PMS5003;62860;52.134;23.714;2022-11-15T01:59:21;8.6;7.2;5.2
74428;PMS5003;62860;52.134;23.714;2022-11-15T02:04:02;8.8;6.8;4.6
74428;PMS5003;62860;52.134;23.714;2022-11-15T02:09:23;10.4;7.4;5.2
74428;PMS5003;62860;52.134;23.714;2022-11-15T02:14:33;8.6;7.6;5.8
74428;PMS5003;62860;52.134;23.714;2022-11-15T02:20:05;8.2;8;5.6
74428;PMS5003;62860;52.134;23.714;2022-11-15T02:24:09;8.4;7.2;5.2
74428;PMS5003;62860;52.134;23.714;2022-11-15T02:29:01;9.6;8.6;6.2
74428;PMS5003;62860;52.134;23.714;2022-11-15T02:34:40;12.2;8.4;6.8
74428;PMS5003;62860;52.134;23.714;2022-11-15T02:39:35;12;8.8;6
74428;PMS5003;62860;52.134;23.714;2022-11-15T02:44:12;9.2;8;4.8
74428;PMS5003;62860;52.134;23.714;2022-11-15T02:49:50;11.8;9.2;5.6
74428;PMS5003;62860;52.134;23.714;2022-11-15T02:54:01;11;8.6;6
74428;PMS5003;62860;52.134;23.714;2022-11-15T03:00:05;8.8;7.2;5.4
74428;PMS5003;62860;52.134;23.714;2022-11-15T03:04:11;7.8;6.4;5
74428;PMS5003;62860;52.134;23.714;2022-11-15T03:09:23;8.4;5.8;4.4
74428;PMS5003;62860;52.134;23.714;2022-11-15T03:14:22;9.8;7;4.8
74428;PMS5003;62860;52.134;23.714;2022-11-15T03:19:03;7.4;5.6;4.2
74428;PMS5003;62860;52.134;23.714;2022-11-15T03:24:23;8.6;7.2;4.6
74428;PMS5003;62860;52.134;23.714;2022-11-15T03:29:33;6.4;5.2;4.2
74428;PMS5003;62860;52.134;23.714;2022-11-15T03:34:22;7;6.2;4.2
74428;PMS5003;62860;52.134;23.714;2022-11-15T03:39:49;7;6.4;5
74428;PMS5003;62860;52.134;23.714;2022-11-15T03:44:26;4.2;3.6;3.2
74428;PMS5003;62860;52.134;23.714;2022-11-15T03:49:49;5.2;3.2;2.8
74428;PMS5003;62860;52.134;23.714;2022-11-15T03:54:33;7.4;6.2;4.2
74428;PMS5003;62860;52.134;23.714;2022-11-15T03:59:33;5.6;3.8;3
74428;PMS5003;62860;52.134;23.714;2022-11-15T04:04:37;3.6;3.4;2.8
74428;PMS5003;62860;52.134;23.714;2022-11-15T04:09:01;5.8;4.2;3.6
74428;PMS5003;62860;52.134;23.714;2022-11-15T04:14:49;4.4;4;2.6
74428;PMS5003;62860;52.134;23.714;2022-11-15T04:19:19;5.4;2.8;2.2
74428;PMS5003;62860;52.134;23.714;2022-11-15T04:24:31;5.4;4.2;3.4
74428;PMS5003;62860;52.134;23.714;2022-11-15T04:29:01;5.6;4;3
74428;PMS5003;62860;52.134;23.714;2022-11-15T04:34:01;4;4;3
74428;PMS5003;62860;52.134;23.714;2022-11-15T04:39:11;5.8;4.4;2.6
74428;PMS5003;62860;52.134;23.714;2022-11-15T04:44:35;5.4;4.2;2.6
74428;PMS5003;62860;52.134;23.714;2022-11-15T04:49:11;5.2;3.2;2.4
74428;PMS5003;62860;52.134;23.714;2022-11-15T04:54:45;5.8;5;3.4
74428;PMS5003;62860;52.134;23.714;2022-11-15T04:59:11;6.8;5.6;3.6
74428;PMS5003;62860;52.134;23.714;2022-11-15T05:04:47;6.2;4.4;3.6
74428;PMS5003;62860;52.134;23.714;2022-11-15T05:09:35;4.4;3.6;2.8
74428;PMS5003;62860;52.134;23.714;2022-11-15T05:14:33;5.4;4;3.2
74428;PMS5003;62860;52.134;23.714;2022-11-15T05:19:47;7;5.2;4
74428;PMS5003;62860;52.134;23.714;2022-11-15T05:24:35;7.2;6.2;4
74428;PMS5003;62860;52.134;23.714;2022-11-15T05:29:47;8.2;6;4.2
74428;PMS5003;62860;52.134;23.714;2022-11-15T05:34:01;6.4;5.6;4
74428;PMS5003;62860;52.134;23.714;2022-11-15T05:39:35;9;6.2;5.2
74428;PMS5003;62860;52.134;23.714;2022-11-15T05:44:23;8;6.2;4.6
74428;PMS5003;62860;52.134;23.714;2022-11-15T05:49:12;8.6;5.8;4.6
74428;PMS5003;62860;52.134;23.714;2022-11-15T05:54:23;10.2;7.2;6
74428;PMS5003;62860;52.134;23.714;2022-11-15T05:59:47;8;6.4;4.4
74428;PMS5003;62860;52.134;23.714;2022-11-15T06:04:21;10;7.3;5.8
74428;PMS5003;62860;52.134;23.714;2022-11-15T06:09:49;9.2;7.2;5.4
74428;PMS5003;62860;52.134;23.714;2022-11-15T06:14:01;9.4;8.2;6.2
74428;PMS5003;62860;52.134;23.714;2022-11-15T06:19:49;8.8;7.4;5.4
74428;PMS5003;62860;52.134;23.714;2022-11-15T06:24:35;11.4;10.4;6.4
74428;PMS5003;62860;52.134;23.714;2022-11-15T06:29:31;10;8;6
74428;PMS5003;62860;52.134;23.714;2022-11-15T06:34:35;9.4;8.2;6
74428;PMS5003;62860;52.134;23.714;2022-11-15T06:39:01;11.6;9;6.6
74428;PMS5003;62860;52.134;23.714;2022-11-15T06:44:47;11;8.8;6.4
74428;PMS5003;62860;52.134;23.714;2022-11-15T06:49:01;13.4;10;6.2
74428;PMS5003;62860;52.134;23.714;2022-11-15T06:54:33;10.6;8.6;5.8
74428;PMS5003;62860;52.134;23.714;2022-11-15T06:59:19;10.8;8.8;6.4
74428;PMS5003;62860;52.134;23.714;2022-11-15T07:04:01;12.2;9.8;6.8
74428;PMS5003;62860;52.134;23.714;2022-11-15T07:09:23;12.6;9.6;6.6
74428;PMS5003;62860;52.134;23.714;2022-11-15T07:14:31;12.6;10;6.8
74428;PMS5003;62860;52.134;23.714;2022-11-15T07:19:19;14.8;11.8;8.4
74428;PMS5003;62860;52.134;23.714;2022-11-15T07:24:47;12;10.2;7
74428;PMS5003;62860;52.134;23.714;2022-11-15T07:29:01;12.2;10.2;7.2
74428;PMS5003;62860;52.134;23.714;2022-11-15T07:34:47;14.6;13;8.6
74428;PMS5003;62860;52.134;23.714;2022-11-15T07:39:13;19.8;16;10.8
74428;PMS5003;62860;52.134;23.714;2022-11-15T07:44:33;16.8;13.6;8.6
74428;PMS5003;62860;52.134;23.714;2022-11-15T07:49:37;13.8;11;8.2
74428;PMS5003;62860;52.134;23.714;2022-11-15T07:54:01;13.2;11.2;7.8
74428;PMS5003;62860;52.134;23.714;2022-11-15T07:59:45;23.6;19.6;12.2
74428;PMS5003;62860;52.134;23.714;2022-11-15T08:04:09;12.4;10.2;7.4
74428;PMS5003;62860;52.134;23.714;2022-11-15T08:09:33;10.4;8;6
74428;PMS5003;62860;52.134;23.714;2022-11-15T08:14:09;9.2;7.4;4.8
74428;PMS5003;62860;52.134;23.714;2022-11-15T08:19:01;12.6;9;6.8
74428;PMS5003;62860;52.134;23.714;2022-11-15T08:24:01;14;10.2;6.8
74428;PMS5003;62860;52.134;23.714;2022-11-15T08:29:33;10;8.8;6.2
74428;PMS5003;62860;52.134;23.714;2022-11-15T08:34:21;14.4;12.4;9.2
74428;PMS5003;62860;52.134;23.714;2022-11-15T08:39:47;11.6;9;6.2
74428;PMS5003;62860;52.134;23.714;2022-11-15T08:44:11;14.6;12.6;8.8
74428;PMS5003;62860;52.134;23.714;2022-11-15T08:49:47;14;11.4;7.6
74428;PMS5003;62860;52.134;23.714;2022-11-15T08:54:35;15.4;13.6;9.2
74428;PMS5003;62860;52.134;23.714;2022-11-15T08:59:33;26.6;19.2;14.6
74428;PMS5003;62860;52.134;23.714;2022-11-15T09:04:43;21.2;17.4;12
74428;PMS5003;62860;52.134;23.714;2022-11-15T09:09:11;11.6;10.8;7.6
74428;PMS5003;62860;52.134;23.714;2022-11-15T09:14:47;17;14.2;8.2
74428;PMS5003;62860;52.134;23.714;2022-11-15T09:19:09;14.6;12;8
74428;PMS5003;62860;52.134;23.714;2022-11-15T09:24:13;19;16.6;11.4
74428;PMS5003;62860;52.134;23.714;2022-11-15T09:29:01;14.2;12.2;8.2
74428;PMS5003;62860;52.134;23.714;2022-11-15T09:34:01;17.2;14.2;8
74428;PMS5003;62860;52.134;23.714;2022-11-15T09:39:23;15.6;12.2;8.2
74428;PMS5003;62860;52.134;23.714;2022-11-15T09:44:51;16.8;12.8;8.2
74428;PMS5003;62860;52.134;23.714;2022-11-15T09:49:21;18.2;14;9.8
74428;PMS5003;62860;52.134;23.714;2022-11-15T09:54:46;17.4;15;9.6
74428;PMS5003;62860;52.134;23.714;2022-11-15T09:59:04;19.6;17;10.6
74428;PMS5003;62860;52.134;23.714;2022-11-15T10:04:47;19;18.6;13
74428;PMS5003;62860;52.134;23.714;2022-11-15T10:09:47;14.6;13.8;9.2
74428;PMS5003;62860;52.134;23.714;2022-11-15T10:14:33;14.4;12;8
74428;PMS5003;62860;52.134;23.714;2022-11-15T10:19:34;15.6;11.4;8.2
74428;PMS5003;62860;52.134;23.714;2022-11-15T10:24:11;19;14.4;9.6
74428;PMS5003;62860;52.134;23.714;2022-11-15T10:29:46;15.2;13.4;9
74428;PMS5003;62860;52.134;23.714;2022-11-15T10:34:22;15.8;12.6;7.4
74428;PMS5003;62860;52.134;23.714;2022-11-15T10:39:35;19.8;17.8;11.8
74428;PMS5003;62860;52.134;23.714;2022-11-15T10:44:24;17.4;14.2;7.8
74428;PMS5003;62860;52.134;23.714;2022-11-15T10:49:19;18.8;14.4;10.4
74428;PMS5003;62860;52.134;23.714;2022-11-15T10:54:11;19.2;14.6;9.6
74428;PMS5003;62860;52.134;23.714;2022-11-15T10:59:35;15.2;13.8;9.8
74428;PMS5003;62860;52.134;23.714;2022-11-15T11:04:19;19.8;15.4;10.4
74428;PMS5003;62860;52.134;23.714;2022-11-15T11:09:49;20;18;11.8
74428;PMS5003;62860;52.134;23.714;2022-11-15T11:14:11;19.6;14.6;10.4
74428;PMS5003;62860;52.134;23.714;2022-11-15T11:19:37;15.5;12.8;8.8
74428;PMS5003;62860;52.134;23.714;2022-11-15T11:24:34;18.8;14.6;8.6
74428;PMS5003;62860;52.134;23.714;2022-11-15T11:29:27;16.6;12.4;8.2
74428;PMS5003;62860;52.134;23.714;2022-11-15T11:34:48;15.2;11.8;7.6
74428;PMS5003;62860;52.134;23.714;2022-11-15T11:39:15;15.8;12.8;8.6
74428;PMS5003;62860;52.134;23.714;2022-11-15T11:44:50;20.8;19;12
74428;PMS5003;62860;52.134;23.714;2022-11-15T11:49:49;16.2;14;10
74428;PMS5003;62860;52.134;23.714;2022-11-15T11:54:52;17;13.2;9.8
74428;PMS5003;62860;52.134;23.714;2022-11-15T11:59:25;20;16.6;12.2
74428;PMS5003;62860;52.134;23.714;2022-11-15T12:04:03;18.2;13.8;8.6
74428;PMS5003;62860;52.134;23.714;2022-11-15T12:09:27;20.2;16.6;10
74428;PMS5003;62860;52.134;23.714;2022-11-15T12:14:50;19.8;16.6;10.4
74428;PMS5003;62860;52.134;23.714;2022-11-15T12:19:09;21.4;17.6;11
74428;PMS5003;62860;52.134;23.714;2022-11-15T12:24:37;18;14;8.8
74428;PMS5003;62860;52.134;23.714;2022-11-15T12:29:12;20.8;17;10.8
74428;PMS5003;62860;52.134;23.714;2022-11-15T12:34:49;17.8;14.8;9.8
74428;PMS5003;62860;52.134;23.714;2022-11-15T12:40:03;22.8;16.8;11.8
74428;PMS5003;62860;52.134;23.714;2022-11-15T12:45:03;21.6;18.2;12.4
74428;PMS5003;62860;52.134;23.714;2022-11-15T12:49:45;20;16.8;10
74428;PMS5003;62860;52.134;23.714;2022-11-15T12:54:07;21.8;15.6;10.4
74428;PMS5003;62860;52.134;23.714;2022-11-15T12:59:49;19.6;16.8;9.2
74428;PMS5003;62860;52.134;23.714;2022-11-15T13:04:45;12.8;11;7.6
74428;PMS5003;62860;52.134;23.714;2022-11-15T13:09:51;17.6;11.6;7.8
74428;PMS5003;62860;52.134;23.714;2022-11-15T13:14:53;15.2;11.8;8.2
74428;PMS5003;62860;52.134;23.714;2022-11-15T13:19:11;15.8;12;7.2
74428;PMS5003;62860;52.134;23.714;2022-11-15T13:24:23;15.6;12;8.2
74428;PMS5003;62860;52.134;23.714;2022-11-15T13:29:47;12.2;11.2;8.2
74428;PMS5003;62860;52.134;23.714;2022-11-15T13:34:23;17.4;14;9.8
74428;PMS5003;62860;52.134;23.714;2022-11-15T13:39:33;17.8;13.4;7.8
74428;PMS5003;62860;52.134;23.714;2022-11-15T13:44:01;17.8;12.8;9
74428;PMS5003;62860;52.134;23.714;2022-11-15T13:49:49;25.6;22.4;14
74428;PMS5003;62860;52.134;23.714;2022-11-15T13:54:24;43.4;35;21.2
74428;PMS5003;62860;52.134;23.714;2022-11-15T13:59:35;52;40.4;25.4
74428;PMS5003;62860;52.134;23.714;2022-11-15T14:04:25;41.4;34.6;21
74428;PMS5003;62860;52.134;23.714;2022-11-15T14:09:32;25.8;19.2;11.6
74428;PMS5003;62860;52.134;23.714;2022-11-15T14:14:49;24.6;19.6;13.2
74428;PMS5003;62860;52.134;23.714;2022-11-15T14:19:49;16.8;13.4;9.6
74428;PMS5003;62860;52.134;23.714;2022-11-15T14:25:03;15.2;12.6;9.4
74428;PMS5003;62860;52.134;23.714;2022-11-15T14:29:24;16.6;14;9.6
74428;PMS5003;62860;52.134;23.714;2022-11-15T14:34:35;19.4;13.4;8.8
74428;PMS5003;62860;52.134;23.714;2022-11-15T14:39:23;26.8;22.6;15.2
74428;PMS5003;62860;52.134;23.714;2022-11-15T14:44:49;25.2;19.8;12.8
74428;PMS5003;62860;52.134;23.714;2022-11-15T14:49:21;24.8;20.6;13.2
74428;PMS5003;62860;52.134;23.714;2022-11-15T14:54:35;21;17.4;11.6
74428;PMS5003;62860;52.134;23.714;2022-11-15T14:59:01;16.8;13.4;9
74428;PMS5003;62860;52.134;23.714;2022-11-15T15:04:47;16.2;13;9.2
74428;PMS5003;62860;52.134;23.714;2022-11-15T15:09:23;14.6;12.8;9.2
74428;PMS5003;62860;52.134;23.714;2022-11-15T15:14:33;14.4;11.2;7.4
74428;PMS5003;62860;52.134;23.714;2022-11-15T15:19:35;15.6;12.2;7
74428;PMS5003;62860;52.134;23.714;2022-11-15T15:24:21;16.4;11.8;7.6
74428;PMS5003;62860;52.134;23.714;2022-11-15T15:29:45;13.3;9.8;6.3
74428;PMS5003;62860;52.134;23.714;2022-11-15T15:34:47;13.6;11;8.2
74428;PMS5003;62860;52.134;23.714;2022-11-15T15:39:47;11.6;10;7.2
74428;PMS5003;62860;52.134;23.714;2022-11-15T15:44:23;17.4;12.6;8.2
74428;PMS5003;62860;52.134;23.714;2022-11-15T15:49:09;15.2;10.8;6.6
74428;PMS5003;62860;52.134;23.714;2022-11-15T15:54:21;8.6;7.2;5.6
74428;PMS5003;62860;52.134;23.714;2022-11-15T15:59:47;12.6;9.6;6.4
74428;PMS5003;62860;52.134;23.714;2022-11-15T16:04:47;18.2;13.6;8.4
74428;PMS5003;62860;52.134;23.714;2022-11-15T16:09:45;12.4;10.4;7.2
74428;PMS5003;62860;52.134;23.714;2022-11-15T16:14:01;10.4;10;6.6
74428;PMS5003;62860;52.134;23.714;2022-11-15T16:19:11;12.2;9.2;6.2
74428;PMS5003;62860;52.134;23.714;2022-11-15T16:24:37;13.8;10.5;6.8
74428;PMS5003;62860;52.134;23.714;2022-11-15T16:29:33;11.4;10;6.8
74428;PMS5003;62860;52.134;23.714;2022-11-15T16:34:23;10.4;9.2;6
74428;PMS5003;62860;52.134;23.714;2022-11-15T16:39:11;16.6;14.6;9.6
74428;PMS5003;62860;52.134;23.714;2022-11-15T16:44:11;12.2;9.6;6.8
74428;PMS5003;62860;52.134;23.714;2022-11-15T16:49:25;12.5;9.5;6.8
74428;PMS5003;62860;52.134;23.714;2022-11-15T16:54:11;10.2;7.2;5.2
74428;PMS5003;62860;52.134;23.714;2022-11-15T16:59:45;9.8;7.6;5.6
74428;PMS5003;62860;52.134;23.714;2022-11-15T17:04:11;9.6;8.6;6.6
74428;PMS5003;62860;52.134;23.714;2022-11-15T17:09:01;11.5;10.3;7.3
74428;PMS5003;62860;52.134;23.714;2022-11-15T17:14:23;11.6;9.2;6.4
74428;PMS5003;62860;52.134;23.714;2022-11-15T17:19:47;9.2;7;5.4
74428;PMS5003;62860;52.134;23.714;2022-11-15T17:24:47;8.2;5.8;4
74428;PMS5003;62860;52.134;23.714;2022-11-15T17:29:11;13.2;9.8;7.2
74428;PMS5003;62860;52.134;23.714;2022-11-15T17:34:02;10;7.8;5.6
74428;PMS5003;62860;52.134;23.714;2022-11-15T17:39:38;16.2;12.8;9
74428;PMS5003;62860;52.134;23.714;2022-11-15T17:44:25;16.4;13.2;9
74428;PMS5003;62860;52.134;23.714;2022-11-15T17:49:01;10.6;8.4;7
74428;PMS5003;62860;52.134;23.714;2022-11-15T17:54:01;9.8;8.5;6.3
74428;PMS5003;62860;52.134;23.714;2022-11-15T17:59:01;12.6;10.2;6.8
74428;PMS5003;62860;52.134;23.714;2022-11-15T18:04:31;12;9.4;6.8
74428;PMS5003;62860;52.134;23.714;2022-11-15T18:09:21;7.3;6.5;4
74428;PMS5003;62860;52.134;23.714;2022-11-15T18:14:49;10;8.4;6.2
74428;PMS5003;62860;52.134;23.714;2022-11-15T18:19:01;12.4;8.8;6.2
74428;PMS5003;62860;52.134;23.714;2022-11-15T18:24:11;11.6;9.2;6.8
74428;PMS5003;62860;52.134;23.714;2022-11-15T18:29:21;8;6.8;5.2
74428;PMS5003;62860;52.134;23.714;2022-11-15T18:34:49;11.2;8.8;6.2
74428;PMS5003;62860;52.134;23.714;2022-11-15T18:39:47;13;10.8;7
74428;PMS5003;62860;52.134;23.714;2022-11-15T18:44:11;10.4;8.6;5.6
74428;PMS5003;62860;52.134;23.714;2022-11-15T18:49:01;13;9;6.2
74428;PMS5003;62860;52.134;23.714;2022-11-15T18:54:37;15.8;12.4;7.6
74428;PMS5003;62860;52.134;23.714;2022-11-15T18:59:23;12.8;9.2;6.4
74428;PMS5003;62860;52.134;23.714;2022-11-15T19:04:21;9.6;6.8;4.6
74428;PMS5003;62860;52.134;23.714;2022-11-15T19:09:01;8.6;7.6;5.8
74428;PMS5003;62860;52.134;23.714;2022-11-15T19:14:12;9;7.6;5.2
74428;PMS5003;62860;52.134;23.714;2022-11-15T19:19:35;5.8;5.2;4
74428;PMS5003;62860;52.134;23.714;2022-11-15T19:24:17;9.8;7.6;5.2
74428;PMS5003;62860;52.134;23.714;2022-11-15T19:29:49;11.4;8.6;6.4
74428;PMS5003;62860;52.134;23.714;2022-11-15T19:34:02;9.2;7.6;5
74428;PMS5003;62860;52.134;23.714;2022-11-15T19:39:12;12;8.6;5.4
74428;PMS5003;62860;52.134;23.714;2022-11-15T19:44:23;9.8;7;5.4
74428;PMS5003;62860;52.134;23.714;2022-11-15T19:49:50;7.4;6.4;4
74428;PMS5003;62860;52.134;23.714;2022-11-15T19:54:49;7.4;5.6;4.2
74428;PMS5003;62860;52.134;23.714;2022-11-15T19:59:11;6.2;4.6;3.6
74428;PMS5003;62860;52.134;23.714;2022-11-15T20:04:11;7.2;5.4;4
74428;PMS5003;62860;52.134;23.714;2022-11-15T20:09:23;7.6;6.4;4.8
74428;PMS5003;62860;52.134;23.714;2022-11-15T20:14:37;8.6;5.4;3.8
74428;PMS5003;62860;52.134;23.714;2022-11-15T20:19:21;9;6;4.8
74428;PMS5003;62860;52.134;23.714;2022-11-15T20:24:49;8;6;4.5
74428;PMS5003;62860;52.134;23.714;2022-11-15T20:29:01;8;6;4
74428;PMS5003;62860;52.134;23.714;2022-11-15T20:34:51;6;6;4
74428;PMS5003;62860;52.134;23.714;2022-11-15T20:39:23;7.3;5;3.3
74428;PMS5003;62860;52.134;23.714;2022-11-15T20:44:49;7.3;4.8;3.3
74428;PMS5003;62860;52.134;23.714;2022-11-15T20:49:11;6.4;5.2;3
74428;PMS5003;62860;52.134;23.714;2022-11-15T20:54:11;6;4.8;3.2
74428;PMS5003;62860;52.134;23.714;2022-11-15T20:59:21;6.8;4.2;3.4
74428;PMS5003;62860;52.134;23.714;2022-11-15T21:04:23;5.8;5;4.2
74428;PMS5003;62860;52.134;23.714;2022-11-15T21:09:51;8.4;6.8;4.2
74428;PMS5003;62860;52.134;23.714;2022-11-15T21:14:49;5.4;4;3.2
74428;PMS5003;62860;52.134;23.714;2022-11-15T21:19:23;4.8;3.4;2.8
74428;PMS5003;62860;52.134;23.714;2022-11-15T21:24:37;5.6;4.4;3.4
74428;PMS5003;62860;52.134;23.714;2022-11-15T21:29:33;4.6;2.8;2.2
74428;PMS5003;62860;52.134;23.714;2022-11-15T21:34:21;5.2;4;2.4
74428;PMS5003;62860;52.134;23.714;2022-11-15T21:39:49;4.8;2.6;2
74428;PMS5003;62860;52.134;23.714;2022-11-15T21:44:35;5.8;4.6;3.6
74428;PMS5003;62860;52.134;23.714;2022-11-15T21:49:37;3.8;2.6;2
74428;PMS5003;62860;52.134;23.714;2022-11-15T21:54:21;3.6;2.6;2.4
74428;PMS5003;62860;52.134;23.714;2022-11-15T21:59:45;3.4;2.6;1.8
74428;PMS5003;62860;52.134;23.714;2022-11-15T22:04:29;3.6;3.4;2
74428;PMS5003;62860;52.134;23.714;2022-11-15T22:09:07;3.4;2.6;1.4
74428;PMS5003;62860;52.134;23.714;2022-11-15T22:14:31;3;2.6;1.6
74428;PMS5003;62860;52.134;23.714;2022-11-15T22:19:33;3.2;2.2;2
74428;PMS5003;62860;52.134;23.714;2022-11-15T22:24:45;5.2;1.8;1.4
74428;PMS5003;62860;52.134;23.714;2022-11-15T22:29:43;3.4;1.8;1.6
74428;PMS5003;62860;52.134;23.714;2022-11-15T22:34:02;2.6;2;1.2
74428;PMS5003;62860;52.134;23.714;2022-11-15T22:39:33;4.8;2.4;2.2
74428;PMS5003;62860;52.134;23.714;2022-11-15T22:44:31;2.8;2.4;1.8
74428;PMS5003;62860;52.134;23.714;2022-11-15T22:49:19;4;3.4;2.2
74428;PMS5003;62860;52.134;23.714;2022-11-15T22:54:45;3.4;1.8;1.8
74428;PMS5003;62860;52.134;23.714;2022-11-15T22:59:07;2.8;2.6;1.8
74428;PMS5003;62860;52.134;23.714;2022-11-15T23:04:45;3;2.4;1.4
74428;PMS5003;62860;52.134;23.714;2022-11-15T23:09:07;2.6;2.2;1.6
74428;PMS5003;62860;52.134;23.714;2022-11-15T23:14:45;3.4;2.8;2
74428;PMS5003;62860;52.134;23.714;2022-11-15T23:19:19;3.4;1.8;1.6
74428;PMS5003;62860;52.134;23.714;2022-11-15T23:24:08;2.8;2.2;1.4
74428;PMS5003;62860;52.134;23.714;2022-11-15T23:29:32;2.6;2.4;1.8
74428;PMS5003;62860;52.134;23.714;2022-11-15T23:34:34;2;1.4;1.2
74428;PMS5003;62860;52.134;23.714;2022-11-15T23:39:45;1.4;1.4;1
74428;PMS5003;62860;52.134;23.714;2022-11-15T23:44:48;2.4;2;1.6
74428;PMS5003;62860;52.134;23.714;2022-11-15T23:49:07;2.2;1.4;0.8
74428;PMS5003;62860;52.134;23.714;2022-11-15T23:54:33;2.4;2;1.4
74428;PMS5003;62860;52.134;23.714;2022-11-15T23:59:31;3.2;2.2;1.6
